createdAt,value
2018-06-13T00:00:38.515Z,10.57
2018-06-13T00:01:38.624Z,10.51
2018-06-13T00:02:38.421Z,10.44
2018-06-13T00:03:38.414Z,10.46
2018-06-13T00:04:38.654Z,10.47
2018-06-13T00:05:38.430Z,10.54
2018-06-13T00:06:38.427Z,10.53
2018-06-13T00:07:38.446Z,10.43
2018-06-13T00:08:38.439Z,10.43
2018-06-13T00:09:38.419Z,10.52
2018-06-13T00:10:38.490Z,10.51
2018-06-13T00:11:38.432Z,10.5
2018-06-13T00:12:38.548Z,10.56
2018-06-13T00:13:38.432Z,10.52
2018-06-13T00:14:38.426Z,10.51
2018-06-13T00:15:38.421Z,10.46
2018-06-13T00:16:38.455Z,10.48
2018-06-13T00:17:38.404Z,10.51
2018-06-13T00:18:38.441Z,10.46
2018-06-13T00:19:38.446Z,10.51
2018-06-13T00:20:38.497Z,10.44
2018-06-13T00:21:38.433Z,10.38
2018-06-13T00:22:38.850Z,10.43
2018-06-13T00:23:38.556Z,10.47
2018-06-13T00:24:39.125Z,10.46
2018-06-13T00:25:38.520Z,10.38
2018-06-13T00:26:38.439Z,10.4
2018-06-13T00:27:38.425Z,10.42
2018-06-13T00:28:38.623Z,10.42
2018-06-13T00:29:38.435Z,10.41
2018-06-13T00:30:38.434Z,10.4
2018-06-13T00:31:38.426Z,10.41
2018-06-13T00:32:38.520Z,10.39
2018-06-13T00:33:38.469Z,10.32
2018-06-13T00:34:38.472Z,10.32
2018-06-13T00:35:38.435Z,10.34
2018-06-13T00:36:38.426Z,10.3
2018-06-13T00:37:38.441Z,10.39
2018-06-13T00:38:38.441Z,10.38
2018-06-13T00:39:38.462Z,10.37
2018-06-13T00:40:38.464Z,10.39
2018-06-13T00:41:38.418Z,10.41
2018-06-13T00:42:38.469Z,10.34
2018-06-13T00:43:38.475Z,10.39
2018-06-13T00:44:38.510Z,10.35
2018-06-13T00:45:38.508Z,10.39
2018-06-13T00:46:38.566Z,10.38
2018-06-13T00:47:38.515Z,10.36
2018-06-13T00:48:38.570Z,10.25
2018-06-13T00:49:38.534Z,10.29
2018-06-13T00:50:38.506Z,10.25
2018-06-13T00:51:38.494Z,10.28
2018-06-13T00:52:38.557Z,10.31
2018-06-13T00:53:38.502Z,10.22
2018-06-13T00:54:38.465Z,10.3
2018-06-13T00:55:38.464Z,10.31
2018-06-13T00:56:38.437Z,10.35
2018-06-13T00:57:38.438Z,10.34
2018-06-13T00:58:38.439Z,10.32
2018-06-13T00:59:38.456Z,10.39
2018-06-13T01:00:38.463Z,10.33
2018-06-13T01:01:38.456Z,10.35
2018-06-13T01:02:38.449Z,10.36
2018-06-13T01:03:38.442Z,10.38
2018-06-13T01:04:38.701Z,10.31
2018-06-13T01:05:38.474Z,10.33
2018-06-13T01:06:38.443Z,10.36
2018-06-13T01:07:38.645Z,10.36
2018-06-13T01:08:38.556Z,10.31
2018-06-13T01:09:38.657Z,10.35
2018-06-13T01:10:40.292Z,10.44
2018-06-13T01:11:38.459Z,10.41
2018-06-13T01:12:38.442Z,10.45
2018-06-13T01:13:38.684Z,10.39
2018-06-13T01:14:38.595Z,10.38
2018-06-13T01:15:38.476Z,10.45
2018-06-13T01:16:38.507Z,10.43
2018-06-13T01:17:38.496Z,10.43
2018-06-13T01:18:38.456Z,10.43
2018-06-13T01:19:38.644Z,10.46
2018-06-13T01:20:38.460Z,10.52
2018-06-13T01:21:38.517Z,10.51
2018-06-13T01:22:38.459Z,10.5
2018-06-13T01:23:38.580Z,10.51
2018-06-13T01:24:38.770Z,10.58
2018-06-13T01:25:38.455Z,10.54
2018-06-13T01:26:38.478Z,10.56
2018-06-13T01:27:38.537Z,10.53
2018-06-13T01:28:38.496Z,10.56
2018-06-13T01:29:38.624Z,10.6
2018-06-13T01:30:38.513Z,10.58
2018-06-13T01:31:38.459Z,10.51
2018-06-13T01:32:38.574Z,10.57
2018-06-13T01:33:38.470Z,10.56
2018-06-13T01:34:38.512Z,10.51
2018-06-13T01:35:38.610Z,10.51
2018-06-13T01:36:38.466Z,10.51
2018-06-13T01:37:38.517Z,10.54
2018-06-13T01:38:38.531Z,10.54
2018-06-13T01:39:38.519Z,10.54
2018-06-13T01:40:38.480Z,10.53
2018-06-13T01:41:38.479Z,10.54
2018-06-13T01:42:38.462Z,10.54
2018-06-13T01:43:38.527Z,10.5
2018-06-13T01:44:38.663Z,10.49
2018-06-13T01:45:38.541Z,10.51
2018-06-13T01:46:38.517Z,10.54
2018-06-13T01:47:38.567Z,10.56
2018-06-13T01:48:38.649Z,10.55
2018-06-13T01:49:38.497Z,10.58
2018-06-13T01:50:38.475Z,10.55
2018-06-13T01:51:38.532Z,10.58
2018-06-13T01:52:38.582Z,10.58
2018-06-13T01:53:38.608Z,10.58
2018-06-13T01:54:38.546Z,10.59
2018-06-13T01:55:38.488Z,10.64
2018-06-13T01:56:38.564Z,10.64
2018-06-13T01:57:38.488Z,10.62
2018-06-13T01:58:38.523Z,10.57
2018-06-13T01:59:38.538Z,10.59
2018-06-13T02:00:38.510Z,10.6
2018-06-13T02:01:38.486Z,10.65
2018-06-13T02:02:38.471Z,10.56
2018-06-13T02:03:38.472Z,10.6
2018-06-13T02:04:38.479Z,10.59
2018-06-13T02:05:38.489Z,10.58
2018-06-13T02:06:38.484Z,10.57
2018-06-13T02:07:38.515Z,10.55
2018-06-13T02:08:38.484Z,10.6
2018-06-13T02:09:38.504Z,10.61
2018-06-13T02:10:38.495Z,10.61
2018-06-13T02:11:38.528Z,10.6
2018-06-13T02:12:38.476Z,10.61
2018-06-13T02:13:38.472Z,10.61
2018-06-13T02:14:38.501Z,10.6
2018-06-13T02:15:38.511Z,10.58
2018-06-13T02:16:38.487Z,10.59
2018-06-13T02:17:38.553Z,10.6
2018-06-13T02:18:38.614Z,10.6
2018-06-13T02:19:38.557Z,10.63
2018-06-13T02:20:38.653Z,10.61
2018-06-13T02:21:38.781Z,10.61
2018-06-13T02:22:38.543Z,10.6
2018-06-13T02:23:38.507Z,10.63
2018-06-13T02:24:38.498Z,10.64
2018-06-13T02:25:38.520Z,10.6
2018-06-13T02:26:38.516Z,10.59
2018-06-13T02:27:38.504Z,10.64
2018-06-13T02:28:38.525Z,10.6
2018-06-13T02:29:38.519Z,10.64
2018-06-13T02:30:38.565Z,10.54
2018-06-13T02:31:38.794Z,10.57
2018-06-13T02:32:38.496Z,10.56
2018-06-13T02:33:38.501Z,10.54
2018-06-13T02:34:38.513Z,10.52
2018-06-13T02:35:38.512Z,10.57
2018-06-13T02:36:38.594Z,10.59
2018-06-13T02:37:38.650Z,10.59
2018-06-13T02:38:38.510Z,10.56
2018-06-13T02:39:38.512Z,10.58
2018-06-13T02:40:38.554Z,10.6
2018-06-13T02:41:38.572Z,10.64
2018-06-13T02:42:38.509Z,10.62
2018-06-13T02:43:38.557Z,10.6
2018-06-13T02:44:38.536Z,10.62
2018-06-13T02:45:38.555Z,10.65
2018-06-13T02:46:38.563Z,10.63
2018-06-13T02:47:38.528Z,10.65
2018-06-13T02:48:38.541Z,10.62
2018-06-13T02:49:38.537Z,10.61
2018-06-13T02:50:38.609Z,10.58
2018-06-13T02:51:38.527Z,10.59
2018-06-13T02:52:38.520Z,10.6
2018-06-13T02:53:38.567Z,10.58
2018-06-13T02:54:38.553Z,10.59
2018-06-13T02:55:38.580Z,10.61
2018-06-13T02:56:38.526Z,10.61
2018-06-13T02:57:38.591Z,10.62
2018-06-13T02:58:38.556Z,10.56
2018-06-13T02:59:38.619Z,10.62
2018-06-13T03:00:38.513Z,10.61
2018-06-13T03:01:38.548Z,10.53
2018-06-13T03:02:38.539Z,10.51
2018-06-13T03:03:38.520Z,10.55
2018-06-13T03:04:38.568Z,10.55
2018-06-13T03:05:38.503Z,10.58
2018-06-13T03:06:38.515Z,10.61
2018-06-13T03:07:38.668Z,10.63
2018-06-13T03:08:38.513Z,10.62
2018-06-13T03:09:38.526Z,10.59
2018-06-13T03:10:38.511Z,10.57
2018-06-13T03:11:38.506Z,10.59
2018-06-13T03:12:38.536Z,10.6
2018-06-13T03:13:38.714Z,10.57
2018-06-13T03:14:38.539Z,10.59
2018-06-13T03:15:38.540Z,10.59
2018-06-13T03:16:38.550Z,10.59
2018-06-13T03:17:38.573Z,10.61
2018-06-13T03:18:38.525Z,10.62
2018-06-13T03:19:38.499Z,10.56
2018-06-13T03:20:38.507Z,10.6
2018-06-13T03:21:38.517Z,10.57
2018-06-13T03:22:38.557Z,10.6
2018-06-13T03:23:38.526Z,10.62
2018-06-13T03:24:38.525Z,10.63
2018-06-13T03:25:38.503Z,10.61
2018-06-13T03:26:38.533Z,10.57
2018-06-13T03:27:38.761Z,10.57
2018-06-13T03:28:38.532Z,10.59
2018-06-13T03:29:38.549Z,10.54
2018-06-13T03:30:38.556Z,10.57
2018-06-13T03:31:38.531Z,10.61
2018-06-13T03:32:38.623Z,10.6
2018-06-13T03:33:39.064Z,10.6
2018-06-13T03:34:38.530Z,10.61
2018-06-13T03:35:38.541Z,10.6
2018-06-13T03:36:38.556Z,10.6
2018-06-13T03:37:38.502Z,10.61
2018-06-13T03:38:38.549Z,10.62
2018-06-13T03:39:38.552Z,10.6
2018-06-13T03:40:38.601Z,10.62
2018-06-13T03:41:38.528Z,10.64
2018-06-13T03:42:38.599Z,10.62
2018-06-13T03:43:38.523Z,10.57
2018-06-13T03:44:38.551Z,10.61
2018-06-13T03:45:38.525Z,10.55
2018-06-13T03:46:38.545Z,10.56
2018-06-13T03:47:38.587Z,10.53
2018-06-13T03:48:38.588Z,10.53
2018-06-13T03:49:38.560Z,10.53
2018-06-13T03:50:38.558Z,10.53
2018-06-13T03:51:38.534Z,10.56
2018-06-13T03:52:38.564Z,10.51
2018-06-13T03:53:38.675Z,10.51
2018-06-13T03:54:38.570Z,10.5
2018-06-13T03:55:38.547Z,10.54
2018-06-13T03:56:38.702Z,10.52
2018-06-13T03:57:38.670Z,10.51
2018-06-13T03:58:38.628Z,10.55
2018-06-13T03:59:38.532Z,10.52
2018-06-13T04:00:38.548Z,10.52
2018-06-13T04:01:38.611Z,10.53
2018-06-13T04:02:38.616Z,10.51
2018-06-13T04:03:38.821Z,10.51
2018-06-13T04:04:38.549Z,10.52
2018-06-13T04:05:38.743Z,10.52
2018-06-13T04:06:38.629Z,10.5
2018-06-13T04:07:38.542Z,10.47
2018-06-13T04:08:38.548Z,10.51
2018-06-13T04:09:38.548Z,10.51
2018-06-13T04:10:38.617Z,10.51
2018-06-13T04:11:38.579Z,10.54
2018-06-13T04:12:38.585Z,10.52
2018-06-13T04:13:38.915Z,10.55
2018-06-13T04:14:38.590Z,10.56
2018-06-13T04:15:38.557Z,10.55
2018-06-13T04:16:38.630Z,10.57
2018-06-13T04:17:38.563Z,10.52
2018-06-13T04:18:38.586Z,10.55
2018-06-13T04:19:38.551Z,10.59
2018-06-13T04:20:38.573Z,10.48
2018-06-13T04:21:38.562Z,10.5
2018-06-13T04:22:38.556Z,10.52
2018-06-13T04:23:38.630Z,10.55
2018-06-13T04:24:38.548Z,10.53
2018-06-13T04:25:38.573Z,10.49
2018-06-13T04:26:38.550Z,10.49
2018-06-13T04:27:38.590Z,10.47
2018-06-13T04:28:38.580Z,10.49
2018-06-13T04:29:38.552Z,10.48
2018-06-13T04:30:38.586Z,10.48
2018-06-13T04:31:38.566Z,10.52
2018-06-13T04:32:38.905Z,10.47
2018-06-13T04:33:38.641Z,10.45
2018-06-13T04:34:38.572Z,10.49
2018-06-13T04:35:38.556Z,10.46
2018-06-13T04:36:38.601Z,10.46
2018-06-13T04:37:38.593Z,10.43
2018-06-13T04:38:38.623Z,10.48
2018-06-13T04:39:38.634Z,10.44
2018-06-13T04:40:38.573Z,10.41
2018-06-13T04:41:38.589Z,10.49
2018-06-13T04:42:38.575Z,10.45
2018-06-13T04:43:38.569Z,10.48
2018-06-13T04:44:38.560Z,10.42
2018-06-13T04:45:38.586Z,10.39
2018-06-13T04:46:38.581Z,10.45
2018-06-13T04:47:38.570Z,10.44
2018-06-13T04:48:38.567Z,10.42
2018-06-13T04:49:38.602Z,10.41
2018-06-13T04:50:38.629Z,10.44
2018-06-13T04:51:38.719Z,10.43
2018-06-13T04:52:38.593Z,10.39
2018-06-13T04:53:38.574Z,10.41
2018-06-13T04:54:38.659Z,10.37
2018-06-13T04:55:38.579Z,10.31
2018-06-13T04:56:38.573Z,10.35
2018-06-13T04:57:38.923Z,10.39
2018-06-13T04:58:38.762Z,10.39
2018-06-13T04:59:38.578Z,10.38
2018-06-13T05:00:38.568Z,10.39
2018-06-13T05:01:38.587Z,10.4
2018-06-13T05:02:38.637Z,10.34
2018-06-13T05:03:38.715Z,10.33
2018-06-13T05:04:38.639Z,10.33
2018-06-13T05:05:38.620Z,10.34
2018-06-13T05:06:38.583Z,10.36
2018-06-13T05:07:38.639Z,10.35
2018-06-13T05:08:38.632Z,10.38
2018-06-13T05:09:38.586Z,10.35
2018-06-13T05:10:38.647Z,10.34
2018-06-13T05:11:38.576Z,10.4
2018-06-13T05:12:38.590Z,10.43
2018-06-13T05:13:38.723Z,10.39
2018-06-13T05:14:38.589Z,10.36
2018-06-13T05:15:38.607Z,10.4
2018-06-13T05:16:38.653Z,10.35
2018-06-13T05:17:38.638Z,10.32
2018-06-13T05:18:38.592Z,10.4
2018-06-13T05:19:38.593Z,10.34
2018-06-13T05:20:38.605Z,10.32
2018-06-13T05:21:38.660Z,10.38
2018-06-13T05:22:38.604Z,10.39
2018-06-13T05:23:38.633Z,10.37
2018-06-13T05:24:38.601Z,10.35
2018-06-13T05:25:38.604Z,10.35
2018-06-13T05:26:38.653Z,10.42
2018-06-13T05:27:38.705Z,10.33
2018-06-13T05:28:38.847Z,10.35
2018-06-13T05:29:38.652Z,10.37
2018-06-13T05:30:38.630Z,10.33
2018-06-13T05:31:38.579Z,10.35
2018-06-13T05:32:38.725Z,10.29
2018-06-13T05:33:38.607Z,10.33
2018-06-13T05:34:38.601Z,10.29
2018-06-13T05:35:38.635Z,10.33
2018-06-13T05:36:38.565Z,10.33
2018-06-13T05:37:38.638Z,10.28
2018-06-13T05:38:38.650Z,10.34
2018-06-13T05:39:38.604Z,10.32
2018-06-13T05:40:38.625Z,10.28
2018-06-13T05:41:38.640Z,10.23
2018-06-13T05:42:38.640Z,10.16
2018-06-13T05:43:38.602Z,10.15
2018-06-13T05:44:38.644Z,10.15
2018-06-13T05:45:38.612Z,10.23
2018-06-13T05:46:38.606Z,10.19
2018-06-13T05:47:38.648Z,10.14
2018-06-13T05:48:38.656Z,10.18
2018-06-13T05:49:38.673Z,10.1
2018-06-13T05:50:38.605Z,10.05
2018-06-13T05:51:38.589Z,10
2018-06-13T05:52:38.661Z,9.89
2018-06-13T05:53:38.614Z,9.91
2018-06-13T05:54:38.619Z,9.95
2018-06-13T05:55:38.644Z,9.97
2018-06-13T05:56:38.626Z,10.03
2018-06-13T05:57:38.642Z,10.01
2018-06-13T05:58:38.696Z,10.02
2018-06-13T05:59:38.624Z,10.03
2018-06-13T06:00:38.619Z,9.96
2018-06-13T06:01:38.720Z,10.01
2018-06-13T06:02:38.680Z,10.04
2018-06-13T06:03:38.645Z,10.02
2018-06-13T06:04:38.691Z,10.01
2018-06-13T06:05:38.838Z,10.1
2018-06-13T06:06:38.630Z,10.17
2018-06-13T06:07:38.649Z,10.09
2018-06-13T06:08:38.677Z,10.1
2018-06-13T06:09:38.649Z,10.06
2018-06-13T06:10:38.674Z,10.04
2018-06-13T06:11:38.718Z,9.99
2018-06-13T06:12:38.682Z,10.06
2018-06-13T06:13:39.120Z,10.04
2018-06-13T06:14:38.665Z,10.06
2018-06-13T06:15:38.717Z,10.05
2018-06-13T06:16:38.652Z,9.92
2018-06-13T06:17:38.678Z,9.89
2018-06-13T06:18:38.771Z,9.87
2018-06-13T06:19:38.736Z,9.84
2018-06-13T06:20:38.837Z,9.89
2018-06-13T06:21:38.663Z,9.86
2018-06-13T06:22:38.647Z,9.76
2018-06-13T06:23:39.213Z,9.82
2018-06-13T06:24:38.621Z,9.89
2018-06-13T06:25:38.716Z,9.76
2018-06-13T06:26:38.666Z,9.52
2018-06-13T06:27:38.771Z,9.58
2018-06-13T06:28:39.354Z,9.65
2018-06-13T06:29:38.684Z,9.7
2018-06-13T06:30:38.639Z,9.33
2018-06-13T06:31:38.659Z,9.43
2018-06-13T06:32:38.695Z,9.47
2018-06-13T06:33:38.659Z,9.33
2018-06-13T06:34:38.771Z,9.39
2018-06-13T06:35:38.641Z,9.45
2018-06-13T06:36:38.648Z,9.42
2018-06-13T06:37:38.709Z,9.22
2018-06-13T06:38:38.654Z,9.25
2018-06-13T06:39:38.667Z,9.2
2018-06-13T06:40:38.716Z,9.11
2018-06-13T06:41:38.661Z,9.05
2018-06-13T06:42:38.634Z,9.19
2018-06-13T06:43:38.677Z,9.26
2018-06-13T06:44:39.066Z,9.26
2018-06-13T06:45:38.660Z,9.28
2018-06-13T06:46:38.640Z,8.9
2018-06-13T06:47:38.641Z,8.87
2018-06-13T06:48:38.633Z,8.89
2018-06-13T06:49:39.035Z,8.73
2018-06-13T06:50:38.862Z,8.54
2018-06-13T06:51:38.658Z,8.67
2018-06-13T06:52:38.656Z,8.66
2018-06-13T06:53:38.653Z,8.74
2018-06-13T06:54:38.642Z,8.72
2018-06-13T06:55:39.612Z,8.75
2018-06-13T06:56:38.650Z,8.98
2018-06-13T06:57:38.684Z,9.72
2018-06-13T06:58:38.682Z,10.04
2018-06-13T06:59:38.664Z,10.15
2018-06-13T07:00:38.662Z,10.2
2018-06-13T07:01:38.801Z,10.16
2018-06-13T07:02:39.057Z,10.24
2018-06-13T07:03:38.650Z,10.28
2018-06-13T07:04:38.689Z,10.21
2018-06-13T07:05:38.698Z,10.29
2018-06-13T07:06:38.673Z,10.17
2018-06-13T07:07:38.646Z,10.24
2018-06-13T07:08:38.645Z,10.3
2018-06-13T07:09:38.688Z,10.34
2018-06-13T07:10:38.645Z,10.38
2018-06-13T07:11:38.713Z,10.35
2018-06-13T07:12:38.634Z,10.32
2018-06-13T07:13:38.689Z,10.32
2018-06-13T07:14:38.823Z,10.26
2018-06-13T07:15:38.923Z,10.35
2018-06-13T07:16:38.864Z,10.3
2018-06-13T07:17:38.694Z,10.34
2018-06-13T07:18:38.671Z,10.3
2018-06-13T07:19:38.712Z,10.34
2018-06-13T07:20:38.661Z,10.44
2018-06-13T07:21:38.678Z,10.32
2018-06-13T07:22:38.671Z,10.35
2018-06-13T07:23:38.736Z,10.31
2018-06-13T07:24:38.939Z,10.24
2018-06-13T07:25:38.644Z,10.22
2018-06-13T07:26:38.667Z,10.25
2018-06-13T07:27:38.656Z,10.23
2018-06-13T07:28:38.699Z,10.19
2018-06-13T07:29:38.647Z,10.05
2018-06-13T07:30:38.695Z,10.1
2018-06-13T07:31:38.635Z,10.03
2018-06-13T07:32:39.302Z,10.05
2018-06-13T07:33:39.031Z,10.13
2018-06-13T07:34:38.692Z,10.22
2018-06-13T07:35:38.679Z,10.08
2018-06-13T07:36:38.667Z,10.21
2018-06-13T07:37:38.832Z,10.15
2018-06-13T07:38:38.679Z,10.19
2018-06-13T07:39:38.660Z,10.07
2018-06-13T07:40:38.655Z,9.82
2018-06-13T07:41:38.729Z,10.07
2018-06-13T07:42:38.673Z,9.85
2018-06-13T07:43:38.669Z,9.82
2018-06-13T07:44:38.665Z,9.87
2018-06-13T07:45:38.666Z,9.98
2018-06-13T07:46:38.681Z,10.11
2018-06-13T07:47:38.909Z,10.08
2018-06-13T07:48:38.725Z,9.76
2018-06-13T07:49:38.986Z,9.85
2018-06-13T07:50:38.686Z,9.82
2018-06-13T07:51:38.785Z,9.88
2018-06-13T07:52:38.726Z,9.84
2018-06-13T07:53:38.680Z,9.74
2018-06-13T07:54:38.702Z,9.6
2018-06-13T07:55:38.698Z,9.47
2018-06-13T07:56:38.670Z,9.52
2018-06-13T07:57:38.673Z,9.56
2018-06-13T07:58:38.678Z,9.6
2018-06-13T07:59:38.729Z,9.72
2018-06-13T08:00:38.672Z,9.64
2018-06-13T08:01:38.685Z,9.42
2018-06-13T08:02:38.693Z,9.35
2018-06-13T08:03:38.675Z,9.31
2018-06-13T08:04:38.814Z,9.42
2018-06-13T08:05:38.676Z,9.46
2018-06-13T08:06:38.689Z,9.35
2018-06-13T08:07:38.780Z,9.3
2018-06-13T08:08:40.389Z,9.42
2018-06-13T08:09:38.767Z,9.39
2018-06-13T08:10:38.772Z,9.36
2018-06-13T08:11:38.668Z,9.27
2018-06-13T08:12:38.746Z,9.36
2018-06-13T08:13:38.659Z,9.37
2018-06-13T08:14:38.749Z,9.51
2018-06-13T08:15:38.721Z,9.42
2018-06-13T08:16:38.715Z,9.44
2018-06-13T08:17:38.808Z,9.46
2018-06-13T08:18:38.753Z,9.47
2018-06-13T08:19:38.741Z,9.44
2018-06-13T08:20:38.698Z,9.43
2018-06-13T08:21:38.686Z,9.5
2018-06-13T08:22:38.678Z,9.53
2018-06-13T08:23:38.680Z,9.33
2018-06-13T08:24:38.725Z,9.5
2018-06-13T08:25:38.834Z,9.48
2018-06-13T08:26:38.898Z,9.24
2018-06-13T08:27:38.908Z,9.19
2018-06-13T08:28:38.695Z,9.11
2018-06-13T08:29:38.670Z,9.23
2018-06-13T08:30:38.703Z,9.08
2018-06-13T08:31:38.680Z,9.14
2018-06-13T08:32:38.732Z,9.18
2018-06-13T08:33:38.980Z,9
2018-06-13T08:34:38.701Z,9.14
2018-06-13T08:35:38.709Z,9.23
2018-06-13T08:36:38.987Z,9.19
2018-06-13T08:37:38.721Z,9.27
2018-06-13T08:38:38.692Z,9.23
2018-06-13T08:39:38.701Z,9.22
2018-06-13T08:40:38.871Z,9.28
2018-06-13T08:41:38.679Z,9.26
2018-06-13T08:42:38.738Z,9.25
2018-06-13T08:43:38.739Z,9.33
2018-06-13T08:44:38.692Z,9.32
2018-06-13T08:45:38.733Z,9.33
2018-06-13T08:46:38.697Z,9.41
2018-06-13T08:47:38.800Z,9.15
2018-06-13T08:48:39.127Z,9.29
2018-06-13T08:49:38.946Z,9.22
2018-06-13T08:50:38.728Z,9.17
2018-06-13T08:51:38.695Z,9.17
2018-06-13T08:52:38.850Z,9.25
2018-06-13T08:53:38.797Z,9.2
2018-06-13T08:54:38.841Z,9.24
2018-06-13T08:55:38.992Z,9.29
2018-06-13T08:56:38.715Z,9.16
2018-06-13T08:57:38.758Z,9.25
2018-06-13T08:58:38.699Z,9.14
2018-06-13T08:59:38.840Z,9.26
2018-06-13T09:00:38.984Z,9.28
2018-06-13T09:01:38.705Z,9.28
2018-06-13T09:02:38.761Z,9.31
2018-06-13T09:03:38.716Z,9.26
2018-06-13T09:04:38.706Z,9.08
2018-06-13T09:05:38.728Z,9.27
2018-06-13T09:06:38.688Z,9.1
2018-06-13T09:07:38.694Z,9.19
2018-06-13T09:08:38.690Z,9.31
2018-06-13T09:09:38.705Z,9.39
2018-06-13T09:10:38.718Z,9.4
2018-06-13T09:11:38.740Z,9.3
2018-06-13T09:12:38.704Z,9.25
2018-06-13T09:13:38.724Z,9.41
2018-06-13T09:14:38.697Z,9.43
2018-06-13T09:15:38.688Z,9.25
2018-06-13T09:16:38.708Z,9.21
2018-06-13T09:17:38.719Z,9.32
2018-06-13T09:18:38.750Z,9.34
2018-06-13T09:19:38.704Z,9.32
2018-06-13T09:20:38.702Z,9.34
2018-06-13T09:21:38.714Z,9.37
2018-06-13T09:22:38.707Z,9.21
2018-06-13T09:23:38.787Z,9.07
2018-06-13T09:24:38.727Z,9.3
2018-06-13T09:25:38.706Z,9
2018-06-13T09:26:39.012Z,8.83
2018-06-13T09:27:38.903Z,8.83
2018-06-13T09:28:38.691Z,8.91
2018-06-13T09:29:38.818Z,8.92
2018-06-13T09:30:38.706Z,8.95
2018-06-13T09:31:38.725Z,9.04
2018-06-13T09:32:39.353Z,9.16
2018-06-13T09:33:38.739Z,9.17
2018-06-13T09:34:38.690Z,9.28
2018-06-13T09:35:38.895Z,9.23
2018-06-13T09:36:38.718Z,9.15
2018-06-13T09:37:40.064Z,9.08
2018-06-13T09:38:38.756Z,9.06
2018-06-13T09:39:38.745Z,9.05
2018-06-13T09:40:38.705Z,9.12
2018-06-13T09:41:38.730Z,9.18
2018-06-13T09:42:38.734Z,9.24
2018-06-13T09:43:38.739Z,9.17
2018-06-13T09:44:38.729Z,9.17
2018-06-13T09:45:38.759Z,9.23
2018-06-13T09:46:38.718Z,9.14
2018-06-13T09:47:38.745Z,9.28
2018-06-13T09:48:38.757Z,9.26
2018-06-13T09:49:38.712Z,9.21
2018-06-13T09:50:38.715Z,9.18
2018-06-13T09:51:38.734Z,9.16
2018-06-13T09:52:38.725Z,9.18
2018-06-13T09:53:38.734Z,9.25
2018-06-13T09:54:38.741Z,9
2018-06-13T09:55:38.725Z,9.04
2018-06-13T09:56:38.918Z,8.98
2018-06-13T09:57:38.771Z,8.99
2018-06-13T09:58:38.798Z,9.1
2018-06-13T09:59:38.740Z,9.06
2018-06-13T10:00:38.724Z,9.08
2018-06-13T10:01:39.060Z,9.03
2018-06-13T10:02:38.801Z,9.02
2018-06-13T10:03:38.725Z,9.14
2018-06-13T10:04:39.110Z,9.24
2018-06-13T10:05:38.734Z,9.19
2018-06-13T10:06:38.939Z,9.17
2018-06-13T10:07:38.733Z,8.99
2018-06-13T10:08:39.032Z,9.05
2018-06-13T10:09:38.755Z,9.16
2018-06-13T10:10:38.750Z,9.15
2018-06-13T10:11:38.715Z,9.13
2018-06-13T10:12:38.826Z,9.19
2018-06-13T10:13:38.751Z,9.18
2018-06-13T10:14:38.738Z,9.1
2018-06-13T10:15:38.741Z,9.16
2018-06-13T10:16:38.776Z,9.11
2018-06-13T10:17:39.020Z,8.96
2018-06-13T10:18:39.099Z,8.9
2018-06-13T10:19:38.742Z,8.75
2018-06-13T10:20:38.741Z,8.73
2018-06-13T10:21:38.779Z,8.71
2018-06-13T10:22:38.750Z,8.56
2018-06-13T10:23:38.810Z,8.63
2018-06-13T10:24:38.769Z,8.67
2018-06-13T10:25:38.769Z,8.55
2018-06-13T10:26:38.957Z,8.58
2018-06-13T10:27:38.750Z,8.57
2018-06-13T10:28:38.752Z,8.41
2018-06-13T10:29:38.762Z,8.51
2018-06-13T10:30:38.768Z,8.47
2018-06-13T10:31:38.776Z,8.65
2018-06-13T10:32:38.752Z,8.55
2018-06-13T10:33:38.809Z,8.61
2018-06-13T10:34:38.752Z,8.58
2018-06-13T10:35:38.771Z,8.74
2018-06-13T10:36:39.284Z,8.77
2018-06-13T10:37:38.751Z,8.8
2018-06-13T10:38:38.946Z,8.81
2018-06-13T10:39:38.801Z,8.77
2018-06-13T10:40:38.827Z,8.66
2018-06-13T10:41:38.754Z,8.66
2018-06-13T10:42:38.917Z,8.78
2018-06-13T10:43:38.754Z,8.81
2018-06-13T10:44:38.774Z,8.73
2018-06-13T10:45:38.978Z,8.91
2018-06-13T10:46:38.760Z,8.85
2018-06-13T10:47:38.755Z,8.95
2018-06-13T10:48:38.953Z,8.89
2018-06-13T10:49:38.903Z,8.78
2018-06-13T10:50:38.819Z,8.89
2018-06-13T10:51:38.853Z,9
2018-06-13T10:52:38.773Z,8.92
2018-06-13T10:53:39.057Z,8.98
2018-06-13T10:54:38.786Z,8.74
2018-06-13T10:55:39.474Z,8.79
2018-06-13T10:56:38.758Z,8.78
2018-06-13T10:57:38.838Z,8.77
2018-06-13T10:58:39.031Z,8.7
2018-06-13T10:59:38.768Z,8.76
2018-06-13T11:00:38.782Z,8.76
2018-06-13T11:01:38.782Z,8.7
2018-06-13T11:02:39.059Z,8.72
2018-06-13T11:03:38.790Z,8.76
2018-06-13T11:04:39.220Z,8.64
2018-06-13T11:05:38.849Z,8.73
2018-06-13T11:06:38.781Z,8.75
2018-06-13T11:07:38.808Z,8.8
2018-06-13T11:08:38.793Z,8.68
2018-06-13T11:09:38.903Z,8.66
2018-06-13T11:10:38.767Z,8.57
2018-06-13T11:11:38.857Z,8.85
2018-06-13T11:12:38.778Z,8.53
2018-06-13T11:13:39.493Z,8.57
2018-06-13T11:14:39.486Z,8.7
2018-06-13T11:15:39.571Z,8.84
2018-06-13T11:16:39.503Z,8.54
2018-06-13T11:17:39.510Z,8.6
2018-06-13T11:18:39.606Z,8.74
2018-06-13T11:19:39.819Z,8.87
2018-06-13T11:20:39.555Z,8.9
2018-06-13T11:21:39.524Z,8.91
2018-06-13T11:22:39.511Z,8.94
2018-06-13T11:23:39.495Z,8.95
2018-06-13T11:24:39.592Z,8.94
2018-06-13T11:25:39.540Z,8.88
2018-06-13T11:26:39.549Z,8.79
2018-06-13T11:27:39.841Z,8.85
2018-06-13T11:28:39.513Z,8.83
2018-06-13T11:29:39.546Z,8.78
2018-06-13T11:30:39.466Z,8.81
2018-06-13T11:31:39.902Z,8.9
2018-06-13T11:32:39.519Z,8.73
2018-06-13T11:33:39.588Z,8.83
2018-06-13T11:34:39.498Z,8.69
2018-06-13T11:35:39.494Z,8.48
2018-06-13T11:36:39.454Z,8.51
2018-06-13T11:37:39.482Z,8.24
2018-06-13T11:38:39.500Z,8.46
2018-06-13T11:39:39.497Z,8.4
2018-06-13T11:40:39.461Z,8.47
2018-06-13T11:41:39.494Z,8.44
2018-06-13T11:42:39.517Z,8.46
2018-06-13T11:43:39.542Z,8.62
2018-06-13T11:44:39.486Z,8.38
2018-06-13T11:45:39.472Z,8.58
2018-06-13T11:46:39.500Z,8.26
2018-06-13T11:47:39.488Z,8.33
2018-06-13T11:48:39.585Z,8.65
2018-06-13T11:49:39.486Z,8.54
2018-06-13T11:50:39.488Z,8.53
2018-06-13T11:51:39.688Z,8.67
2018-06-13T11:52:39.554Z,8.71
2018-06-13T11:53:40.145Z,8.74
2018-06-13T11:54:39.705Z,8.63
2018-06-13T11:55:39.729Z,8.76
2018-06-13T11:56:40.047Z,8.77
2018-06-13T11:57:39.540Z,8.9
2018-06-13T11:58:39.452Z,8.8
2018-06-13T11:59:40.002Z,8.89
2018-06-13T12:00:39.785Z,8.97
2018-06-13T12:01:39.808Z,8.55
2018-06-13T12:02:39.532Z,8.65
2018-06-13T12:03:39.559Z,8.75
2018-06-13T12:04:39.602Z,8.67
2018-06-13T12:05:39.562Z,8.48
2018-06-13T12:06:39.755Z,8.68
2018-06-13T12:07:39.567Z,8.58
2018-06-13T12:08:39.710Z,8.68
2018-06-13T12:09:39.519Z,8.78
2018-06-13T12:10:39.563Z,8.72
2018-06-13T12:11:40.179Z,8.72
2018-06-13T12:12:38.954Z,8.83
2018-06-13T12:13:38.834Z,8.67
2018-06-13T12:14:38.796Z,8.64
2018-06-13T12:15:38.840Z,8.61
2018-06-13T12:16:38.820Z,8.68
2018-06-13T12:17:38.828Z,8.76
2018-06-13T12:18:38.811Z,8.63
2018-06-13T12:19:38.820Z,8.75
2018-06-13T12:20:39.637Z,8.68
2018-06-13T12:21:38.845Z,8.81
2018-06-13T12:22:39.623Z,8.8
2018-06-13T12:23:38.879Z,8.64
2018-06-13T12:24:38.791Z,8.75
2018-06-13T12:25:38.809Z,8.73
2018-06-13T12:26:38.807Z,8.56
2018-06-13T12:27:38.829Z,8.57
2018-06-13T12:28:39.839Z,8.38
2018-06-13T12:29:38.817Z,8.51
2018-06-13T12:30:39.543Z,8.53
2018-06-13T12:31:38.841Z,8.35
2018-06-13T12:32:38.809Z,8.5
2018-06-13T12:33:39.542Z,8.62
2018-06-13T12:34:38.841Z,8.58
2018-06-13T12:35:39.792Z,8.55
2018-06-13T12:36:38.810Z,8.46
2018-06-13T12:37:38.807Z,8.6
2018-06-13T12:38:38.829Z,8.49
2018-06-13T12:39:38.811Z,8.52
2018-06-13T12:40:40.347Z,8.4
2018-06-13T12:41:38.801Z,8.39
2018-06-13T12:42:38.824Z,8.41
2018-06-13T12:43:38.814Z,8.5
2018-06-13T12:44:38.834Z,8.4
2018-06-13T12:45:38.836Z,8.38
2018-06-13T12:46:38.833Z,8.43
2018-06-13T12:47:38.798Z,8.41
2018-06-13T12:48:38.827Z,8.47
2018-06-13T12:49:38.867Z,8.5
2018-06-13T12:50:38.833Z,8.31
2018-06-13T12:51:38.838Z,8.26
2018-06-13T12:52:38.869Z,8.32
2018-06-13T12:53:38.796Z,8.38
2018-06-13T12:54:38.804Z,8.37
2018-06-13T12:55:38.861Z,8.38
2018-06-13T12:56:38.815Z,8.4
2018-06-13T12:57:38.821Z,8.42
2018-06-13T12:58:39.807Z,8.45
2018-06-13T12:59:38.916Z,8.4
2018-06-13T13:00:39.870Z,8.55
2018-06-13T13:01:38.835Z,8.53
2018-06-13T13:02:40.481Z,8.44
2018-06-13T13:03:39.740Z,8.52
2018-06-13T13:04:39.835Z,8.46
2018-06-13T13:05:38.836Z,8.51
2018-06-13T13:06:38.839Z,8.59
2018-06-13T13:07:39.616Z,8.61